sensor_id;sensor_type;location;lat;lon;timestamp;temperature;humidity
3086;DHT22;52812;48.960;9.108;2023-03-26T00:02:05;6.40;99.90
3086;DHT22;52812;48.960;9.108;2023-03-26T00:04:30;6.30;99.90
3086;DHT22;52812;48.960;9.108;2023-03-26T00:06:58;6.40;99.90
3086;DHT22;52812;48.960;9.108;2023-03-26T00:09:23;6.30;99.90
3086;DHT22;52812;48.960;9.108;2023-03-26T00:11:49;6.30;99.90
3086;DHT22;52812;48.960;9.108;2023-03-26T00:14:14;6.30;99.90
3086;DHT22;52812;48.960;9.108;2023-03-26T00:16:42;6.20;99.90
3086;DHT22;52812;48.960;9.108;2023-03-26T00:19:08;6.20;99.90
3086;DHT22;52812;48.960;9.108;2023-03-26T00:21:34;6.10;99.90
3086;DHT22;52812;48.960;9.108;2023-03-26T00:24:06;6.10;99.90
3086;DHT22;52812;48.960;9.108;2023-03-26T00:26:34;6.00;99.90
3086;DHT22;52812;48.960;9.108;2023-03-26T00:29:00;6.00;99.90
3086;DHT22;52812;48.960;9.108;2023-03-26T00:31:27;5.90;99.90
3086;DHT22;52812;48.960;9.108;2023-03-26T00:33:53;5.80;99.90
3086;DHT22;52812;48.960;9.108;2023-03-26T00:36:20;5.90;99.90
3086;DHT22;52812;48.960;9.108;2023-03-26T00:38:46;5.80;99.90
3086;DHT22;52812;48.960;9.108;2023-03-26T00:41:14;5.90;99.90
3086;DHT22;52812;48.960;9.108;2023-03-26T00:43:48;5.90;99.90
3086;DHT22;52812;48.960;9.108;2023-03-26T00:46:14;6.00;99.90
3086;DHT22;52812;48.960;9.108;2023-03-26T00:48:41;6.10;99.90
3086;DHT22;52812;48.960;9.108;2023-03-26T00:51:11;6.00;99.90
3086;DHT22;52812;48.960;9.108;2023-03-26T00:53:37;6.00;99.90
3086;DHT22;52812;48.960;9.108;2023-03-26T00:56:03;5.90;99.90
3086;DHT22;52812;48.960;9.108;2023-03-26T00:58:29;5.90;99.90
3086;DHT22;52812;48.960;9.108;2023-03-26T01:00:57;5.90;99.90
3086;DHT22;52812;48.960;9.108;2023-03-26T01:03:25;5.80;99.90
3086;DHT22;52812;48.960;9.108;2023-03-26T01:06:02;5.80;99.90
3086;DHT22;52812;48.960;9.108;2023-03-26T01:08:42;5.80;99.90
3086;DHT22;52812;48.960;9.108;2023-03-26T01:11:13;5.70;99.90
3086;DHT22;52812;48.960;9.108;2023-03-26T01:16:25;5.70;99.90
3086;DHT22;52812;48.960;9.108;2023-03-26T01:18:51;5.80;99.90
3086;DHT22;52812;48.960;9.108;2023-03-26T01:21:21;5.70;99.90
3086;DHT22;52812;48.960;9.108;2023-03-26T01:23:59;5.70;99.90
3086;DHT22;52812;48.960;9.108;2023-03-26T01:29:09;5.70;99.90
3086;DHT22;52812;48.960;9.108;2023-03-26T01:34:59;5.80;99.90
3086;DHT22;52812;48.960;9.108;2023-03-26T01:40:47;5.80;99.90
3086;DHT22;52812;48.960;9.108;2023-03-26T01:43:31;5.80;99.90
3086;DHT22;52812;48.960;9.108;2023-03-26T01:46:01;5.90;99.90
3086;DHT22;52812;48.960;9.108;2023-03-26T01:48:34;5.80;99.90
3086;DHT22;52812;48.960;9.108;2023-03-26T01:51:01;5.80;99.90
3086;DHT22;52812;48.960;9.108;2023-03-26T01:53:28;5.80;99.90
3086;DHT22;52812;48.960;9.108;2023-03-26T01:56:20;5.80;99.90
3086;DHT22;52812;48.960;9.108;2023-03-26T02:02:10;5.80;99.90
3086;DHT22;52812;48.960;9.108;2023-03-26T02:05:04;5.80;99.90
3086;DHT22;52812;48.960;9.108;2023-03-26T02:07:32;5.90;99.90
3086;DHT22;52812;48.960;9.108;2023-03-26T02:10:08;6.00;99.90
3086;DHT22;52812;48.960;9.108;2023-03-26T02:12:36;6.00;99.90
3086;DHT22;52812;48.960;9.108;2023-03-26T02:15:02;6.00;99.90
3086;DHT22;52812;48.960;9.108;2023-03-26T02:17:27;6.00;99.90
3086;DHT22;52812;48.960;9.108;2023-03-26T02:19:56;6.00;99.90
3086;DHT22;52812;48.960;9.108;2023-03-26T02:22:22;6.00;99.90
3086;DHT22;52812;48.960;9.108;2023-03-26T02:24:54;6.00;99.90
3086;DHT22;52812;48.960;9.108;2023-03-26T02:27:20;5.90;99.90
3086;DHT22;52812;48.960;9.108;2023-03-26T02:29:46;5.90;99.90
3086;DHT22;52812;48.960;9.108;2023-03-26T02:32:12;5.90;99.90
3086;DHT22;52812;48.960;9.108;2023-03-26T02:34:39;5.90;99.90
3086;DHT22;52812;48.960;9.108;2023-03-26T02:37:06;6.00;99.90
3086;DHT22;52812;48.960;9.108;2023-03-26T02:39:32;6.00;99.90
3086;DHT22;52812;48.960;9.108;2023-03-26T02:41:57;6.10;99.90
3086;DHT22;52812;48.960;9.108;2023-03-26T02:44:23;6.10;99.90
3086;DHT22;52812;48.960;9.108;2023-03-26T02:46:48;6.10;99.90
3086;DHT22;52812;48.960;9.108;2023-03-26T02:49:14;6.10;99.90
3086;DHT22;52812;48.960;9.108;2023-03-26T02:51:40;6.10;99.90
3086;DHT22;52812;48.960;9.108;2023-03-26T02:54:06;6.00;99.90
3086;DHT22;52812;48.960;9.108;2023-03-26T02:56:32;6.00;99.90
3086;DHT22;52812;48.960;9.108;2023-03-26T02:58:58;6.00;99.90
3086;DHT22;52812;48.960;9.108;2023-03-26T03:01:23;6.00;99.90
3086;DHT22;52812;48.960;9.108;2023-03-26T03:03:49;6.00;99.90
3086;DHT22;52812;48.960;9.108;2023-03-26T03:06:16;5.90;99.90
3086;DHT22;52812;48.960;9.108;2023-03-26T03:08:44;5.90;99.90
3086;DHT22;52812;48.960;9.108;2023-03-26T03:11:16;5.90;99.90
3086;DHT22;52812;48.960;9.108;2023-03-26T03:13:43;5.90;99.90
3086;DHT22;52812;48.960;9.108;2023-03-26T03:16:09;6.00;99.90
3086;DHT22;52812;48.960;9.108;2023-03-26T03:18:35;6.00;99.90
3086;DHT22;52812;48.960;9.108;2023-03-26T03:21:02;6.00;99.90
3086;DHT22;52812;48.960;9.108;2023-03-26T03:23:28;6.00;99.90
3086;DHT22;52812;48.960;9.108;2023-03-26T03:25:55;6.00;99.90
3086;DHT22;52812;48.960;9.108;2023-03-26T03:28:21;5.90;99.90
3086;DHT22;52812;48.960;9.108;2023-03-26T03:30:47;5.90;99.90
3086;DHT22;52812;48.960;9.108;2023-03-26T03:33:20;5.90;99.90
3086;DHT22;52812;48.960;9.108;2023-03-26T03:35:46;6.00;99.90
3086;DHT22;52812;48.960;9.108;2023-03-26T03:38:13;6.10;99.90
3086;DHT22;52812;48.960;9.108;2023-03-26T03:40:39;6.20;99.90
3086;DHT22;52812;48.960;9.108;2023-03-26T03:43:04;6.30;99.90
3086;DHT22;52812;48.960;9.108;2023-03-26T03:45:30;6.20;99.90
3086;DHT22;52812;48.960;9.108;2023-03-26T03:47:55;6.30;99.90
3086;DHT22;52812;48.960;9.108;2023-03-26T03:50:21;6.40;99.90
3086;DHT22;52812;48.960;9.108;2023-03-26T03:52:47;6.40;99.90
3086;DHT22;52812;48.960;9.108;2023-03-26T03:55:12;6.50;99.90
3086;DHT22;52812;48.960;9.108;2023-03-26T03:57:38;6.50;99.90
3086;DHT22;52812;48.960;9.108;2023-03-26T04:00:05;6.50;99.90
3086;DHT22;52812;48.960;9.108;2023-03-26T04:02:33;6.50;99.90
3086;DHT22;52812;48.960;9.108;2023-03-26T04:05:00;6.40;99.90
3086;DHT22;52812;48.960;9.108;2023-03-26T04:07:27;6.30;99.90
3086;DHT22;52812;48.960;9.108;2023-03-26T04:09:55;6.30;99.90
3086;DHT22;52812;48.960;9.108;2023-03-26T04:12:21;6.20;99.90
3086;DHT22;52812;48.960;9.108;2023-03-26T04:14:47;6.10;99.90
3086;DHT22;52812;48.960;9.108;2023-03-26T04:17:12;6.10;99.90
3086;DHT22;52812;48.960;9.108;2023-03-26T04:19:39;6.10;99.90
3086;DHT22;52812;48.960;9.108;2023-03-26T04:22:06;6.10;99.90
3086;DHT22;52812;48.960;9.108;2023-03-26T04:24:32;6.10;99.90
3086;DHT22;52812;48.960;9.108;2023-03-26T04:27:05;6.00;99.90
3086;DHT22;52812;48.960;9.108;2023-03-26T04:29:37;6.10;99.90
3086;DHT22;52812;48.960;9.108;2023-03-26T04:32:14;6.20;99.90
3086;DHT22;52812;48.960;9.108;2023-03-26T04:34:43;6.20;99.90
3086;DHT22;52812;48.960;9.108;2023-03-26T04:37:34;6.20;99.90
3086;DHT22;52812;48.960;9.108;2023-03-26T04:40:01;6.30;99.90
3086;DHT22;52812;48.960;9.108;2023-03-26T04:42:35;6.30;99.90
3086;DHT22;52812;48.960;9.108;2023-03-26T04:45:03;6.30;99.90
3086;DHT22;52812;48.960;9.108;2023-03-26T04:47:30;6.30;99.90
3086;DHT22;52812;48.960;9.108;2023-03-26T04:49:55;6.20;99.90
3086;DHT22;52812;48.960;9.108;2023-03-26T04:52:21;6.20;99.90
3086;DHT22;52812;48.960;9.108;2023-03-26T04:54:47;6.20;99.90
3086;DHT22;52812;48.960;9.108;2023-03-26T04:57:34;6.30;99.90
3086;DHT22;52812;48.960;9.108;2023-03-26T05:00:04;6.30;99.90
3086;DHT22;52812;48.960;9.108;2023-03-26T05:02:40;6.40;99.90
3086;DHT22;52812;48.960;9.108;2023-03-26T05:05:06;6.50;99.90
3086;DHT22;52812;48.960;9.108;2023-03-26T05:07:32;6.40;99.90
3086;DHT22;52812;48.960;9.108;2023-03-26T05:09:57;6.40;99.90
3086;DHT22;52812;48.960;9.108;2023-03-26T05:12:23;6.40;99.90
3086;DHT22;52812;48.960;9.108;2023-03-26T05:14:48;6.30;99.90
3086;DHT22;52812;48.960;9.108;2023-03-26T05:17:14;6.30;99.90
3086;DHT22;52812;48.960;9.108;2023-03-26T05:19:43;6.30;99.90
3086;DHT22;52812;48.960;9.108;2023-03-26T05:22:09;6.30;99.90
3086;DHT22;52812;48.960;9.108;2023-03-26T05:24:34;6.30;99.90
3086;DHT22;52812;48.960;9.108;2023-03-26T05:27:00;6.30;99.90
3086;DHT22;52812;48.960;9.108;2023-03-26T05:29:26;6.30;99.90
3086;DHT22;52812;48.960;9.108;2023-03-26T05:31:52;6.30;99.90
3086;DHT22;52812;48.960;9.108;2023-03-26T05:34:19;6.30;99.90
3086;DHT22;52812;48.960;9.108;2023-03-26T05:36:45;6.40;99.90
3086;DHT22;52812;48.960;9.108;2023-03-26T05:39:10;6.40;99.90
3086;DHT22;52812;48.960;9.108;2023-03-26T05:41:38;6.40;99.90
3086;DHT22;52812;48.960;9.108;2023-03-26T05:44:04;6.50;99.90
3086;DHT22;52812;48.960;9.108;2023-03-26T05:46:30;6.60;99.90
3086;DHT22;52812;48.960;9.108;2023-03-26T05:48:55;6.60;99.90
3086;DHT22;52812;48.960;9.108;2023-03-26T05:51:21;6.70;99.90
3086;DHT22;52812;48.960;9.108;2023-03-26T05:53:47;6.70;99.90
3086;DHT22;52812;48.960;9.108;2023-03-26T05:56:13;6.80;99.90
3086;DHT22;52812;48.960;9.108;2023-03-26T05:58:38;6.90;99.90
3086;DHT22;52812;48.960;9.108;2023-03-26T06:01:08;6.90;99.90
3086;DHT22;52812;48.960;9.108;2023-03-26T06:03:37;6.90;99.90
3086;DHT22;52812;48.960;9.108;2023-03-26T06:06:06;7.00;99.90
3086;DHT22;52812;48.960;9.108;2023-03-26T06:08:32;7.00;99.90
3086;DHT22;52812;48.960;9.108;2023-03-26T06:11:03;7.00;99.90
3086;DHT22;52812;48.960;9.108;2023-03-26T06:13:30;7.10;99.90
3086;DHT22;52812;48.960;9.108;2023-03-26T06:15:55;7.10;99.90
3086;DHT22;52812;48.960;9.108;2023-03-26T06:18:22;7.20;99.90
3086;DHT22;52812;48.960;9.108;2023-03-26T06:20:49;7.10;99.90
3086;DHT22;52812;48.960;9.108;2023-03-26T06:23:15;7.00;99.90
3086;DHT22;52812;48.960;9.108;2023-03-26T06:25:41;7.10;99.90
3086;DHT22;52812;48.960;9.108;2023-03-26T06:28:08;7.10;99.90
3086;DHT22;52812;48.960;9.108;2023-03-26T06:30:34;7.20;99.90
3086;DHT22;52812;48.960;9.108;2023-03-26T06:33:00;7.30;99.90
3086;DHT22;52812;48.960;9.108;2023-03-26T06:35:25;7.40;99.90
3086;DHT22;52812;48.960;9.108;2023-03-26T06:37:51;7.50;99.90
3086;DHT22;52812;48.960;9.108;2023-03-26T06:40:17;7.50;99.90
3086;DHT22;52812;48.960;9.108;2023-03-26T06:42:42;7.50;99.90
3086;DHT22;52812;48.960;9.108;2023-03-26T06:45:08;7.60;99.90
3086;DHT22;52812;48.960;9.108;2023-03-26T06:47:34;7.60;99.90
3086;DHT22;52812;48.960;9.108;2023-03-26T06:49:59;7.60;99.90
3086;DHT22;52812;48.960;9.108;2023-03-26T06:52:25;7.70;99.90
3086;DHT22;52812;48.960;9.108;2023-03-26T06:54:50;7.70;99.90
3086;DHT22;52812;48.960;9.108;2023-03-26T06:57:16;7.70;99.90
3086;DHT22;52812;48.960;9.108;2023-03-26T06:59:41;7.70;99.90
3086;DHT22;52812;48.960;9.108;2023-03-26T07:02:09;7.70;99.90
3086;DHT22;52812;48.960;9.108;2023-03-26T07:04:36;7.80;99.90
3086;DHT22;52812;48.960;9.108;2023-03-26T07:07:01;7.70;99.90
3086;DHT22;52812;48.960;9.108;2023-03-26T07:09:27;7.70;99.90
3086;DHT22;52812;48.960;9.108;2023-03-26T07:11:55;7.70;99.90
3086;DHT22;52812;48.960;9.108;2023-03-26T07:14:21;7.70;99.90
3086;DHT22;52812;48.960;9.108;2023-03-26T07:16:49;7.70;99.90
3086;DHT22;52812;48.960;9.108;2023-03-26T07:19:14;7.70;99.90
3086;DHT22;52812;48.960;9.108;2023-03-26T07:21:40;7.70;99.90
3086;DHT22;52812;48.960;9.108;2023-03-26T07:32:15;7.70;99.90
3086;DHT22;52812;48.960;9.108;2023-03-26T07:34:51;7.70;99.90
3086;DHT22;52812;48.960;9.108;2023-03-26T07:43:56;7.70;99.90
3086;DHT22;52812;48.960;9.108;2023-03-26T07:46:12;7.70;99.90
3086;DHT22;52812;48.960;9.108;2023-03-26T07:48:43;7.70;99.90
3086;DHT22;52812;48.960;9.108;2023-03-26T07:51:12;7.70;99.90
3086;DHT22;52812;48.960;9.108;2023-03-26T07:53:38;7.70;99.90
3086;DHT22;52812;48.960;9.108;2023-03-26T07:56:18;7.70;99.90
3086;DHT22;52812;48.960;9.108;2023-03-26T08:10:14;7.80;99.90
3086;DHT22;52812;48.960;9.108;2023-03-26T08:15:29;7.70;99.90
3086;DHT22;52812;48.960;9.108;2023-03-26T08:20:31;7.70;99.90
3086;DHT22;52812;48.960;9.108;2023-03-26T08:23:13;7.80;99.90
3086;DHT22;52812;48.960;9.108;2023-03-26T08:26:00;7.70;99.90
3086;DHT22;52812;48.960;9.108;2023-03-26T08:28:49;7.70;99.90
3086;DHT22;52812;48.960;9.108;2023-03-26T08:31:18;7.60;99.90
3086;DHT22;52812;48.960;9.108;2023-03-26T08:33:47;7.50;99.90
3086;DHT22;52812;48.960;9.108;2023-03-26T08:36:14;7.50;99.90
3086;DHT22;52812;48.960;9.108;2023-03-26T08:38:39;7.50;99.90
3086;DHT22;52812;48.960;9.108;2023-03-26T08:44:01;7.50;99.90
3086;DHT22;52812;48.960;9.108;2023-03-26T08:49:30;7.50;99.90
3086;DHT22;52812;48.960;9.108;2023-03-26T09:03:38;7.70;99.90
3086;DHT22;52812;48.960;9.108;2023-03-26T09:06:31;7.70;99.90
3086;DHT22;52812;48.960;9.108;2023-03-26T09:09:13;7.80;99.90
3086;DHT22;52812;48.960;9.108;2023-03-26T09:20:02;7.90;99.90
3086;DHT22;52812;48.960;9.108;2023-03-26T09:22:45;7.90;99.90
3086;DHT22;52812;48.960;9.108;2023-03-26T09:28:03;8.10;99.90
3086;DHT22;52812;48.960;9.108;2023-03-26T09:39:34;9.20;99.90
3086;DHT22;52812;48.960;9.108;2023-03-26T09:42:29;9.40;99.90
3086;DHT22;52812;48.960;9.108;2023-03-26T09:47:41;9.70;99.90
3086;DHT22;52812;48.960;9.108;2023-03-26T09:50:17;9.80;99.90
3086;DHT22;52812;48.960;9.108;2023-03-26T09:53:00;9.80;99.90
3086;DHT22;52812;48.960;9.108;2023-03-26T10:00:47;9.80;99.90
3086;DHT22;52812;48.960;9.108;2023-03-26T10:03:24;9.90;99.90
3086;DHT22;52812;48.960;9.108;2023-03-26T10:06:01;10.10;99.90
3086;DHT22;52812;48.960;9.108;2023-03-26T10:16:55;10.70;99.90
3086;DHT22;52812;48.960;9.108;2023-03-26T10:22:55;11.10;99.90
3086;DHT22;52812;48.960;9.108;2023-03-26T10:25:30;11.60;99.90
3086;DHT22;52812;48.960;9.108;2023-03-26T10:46:21;12.30;99.90
3086;DHT22;52812;48.960;9.108;2023-03-26T10:49:44;12.40;99.90
3086;DHT22;52812;48.960;9.108;2023-03-26T10:52:18;12.30;99.90
3086;DHT22;52812;48.960;9.108;2023-03-26T10:55:17;12.30;99.90
3086;DHT22;52812;48.960;9.108;2023-03-26T10:57:52;12.20;99.90
3086;DHT22;52812;48.960;9.108;2023-03-26T11:00:22;12.00;99.90
3086;DHT22;52812;48.960;9.108;2023-03-26T11:09:30;12.00;99.90
3086;DHT22;52812;48.960;9.108;2023-03-26T11:20:17;12.00;99.90
3086;DHT22;52812;48.960;9.108;2023-03-26T11:25:46;12.50;99.90
3086;DHT22;52812;48.960;9.108;2023-03-26T11:34:24;12.00;99.90
3086;DHT22;52812;48.960;9.108;2023-03-26T11:36:53;11.90;99.90
3086;DHT22;52812;48.960;9.108;2023-03-26T11:39:24;12.10;99.90
3086;DHT22;52812;48.960;9.108;2023-03-26T11:42:01;12.20;99.90
3086;DHT22;52812;48.960;9.108;2023-03-26T11:44:38;12.30;99.90
3086;DHT22;52812;48.960;9.108;2023-03-26T11:47:08;12.10;99.90
3086;DHT22;52812;48.960;9.108;2023-03-26T11:49:35;11.80;99.90
3086;DHT22;52812;48.960;9.108;2023-03-26T11:52:01;11.60;99.90
3086;DHT22;52812;48.960;9.108;2023-03-26T11:54:28;11.80;99.90
3086;DHT22;52812;48.960;9.108;2023-03-26T11:57:05;12.00;99.90
3086;DHT22;52812;48.960;9.108;2023-03-26T11:59:36;12.20;99.90
3086;DHT22;52812;48.960;9.108;2023-03-26T12:04:37;12.40;99.90
3086;DHT22;52812;48.960;9.108;2023-03-26T12:07:22;12.40;99.90
3086;DHT22;52812;48.960;9.108;2023-03-26T12:12:25;12.50;99.90
3086;DHT22;52812;48.960;9.108;2023-03-26T12:14:52;12.60;99.90
3086;DHT22;52812;48.960;9.108;2023-03-26T12:17:29;12.70;99.90
3086;DHT22;52812;48.960;9.108;2023-03-26T12:19:55;12.70;99.90
3086;DHT22;52812;48.960;9.108;2023-03-26T12:22:36;12.70;99.90
3086;DHT22;52812;48.960;9.108;2023-03-26T12:25:15;12.80;99.90
3086;DHT22;52812;48.960;9.108;2023-03-26T12:27:47;12.70;99.90
3086;DHT22;52812;48.960;9.108;2023-03-26T12:30:21;12.80;99.90
3086;DHT22;52812;48.960;9.108;2023-03-26T12:32:49;12.90;99.90
3086;DHT22;52812;48.960;9.108;2023-03-26T12:35:26;13.00;99.90
3086;DHT22;52812;48.960;9.108;2023-03-26T12:37:54;13.00;99.90
3086;DHT22;52812;48.960;9.108;2023-03-26T12:40:27;13.20;99.90
3086;DHT22;52812;48.960;9.108;2023-03-26T12:43:02;13.50;99.90
3086;DHT22;52812;48.960;9.108;2023-03-26T12:45:41;13.60;99.90
3086;DHT22;52812;48.960;9.108;2023-03-26T12:48:09;13.90;99.90
3086;DHT22;52812;48.960;9.108;2023-03-26T12:56:38;13.90;99.90
3086;DHT22;52812;48.960;9.108;2023-03-26T13:05:31;13.80;99.90
3086;DHT22;52812;48.960;9.108;2023-03-26T13:11:41;14.00;99.90
3086;DHT22;52812;48.960;9.108;2023-03-26T13:14:23;13.60;99.90
3086;DHT22;52812;48.960;9.108;2023-03-26T13:17:08;13.30;99.90
3086;DHT22;52812;48.960;9.108;2023-03-26T13:22:42;13.20;99.90
3086;DHT22;52812;48.960;9.108;2023-03-26T13:25:20;13.10;99.90
3086;DHT22;52812;48.960;9.108;2023-03-26T13:31:04;12.70;99.90
3086;DHT22;52812;48.960;9.108;2023-03-26T13:42:01;12.50;99.90
3086;DHT22;52812;48.960;9.108;2023-03-26T13:47:19;13.10;99.90
3086;DHT22;52812;48.960;9.108;2023-03-26T13:49:50;13.10;99.90
3086;DHT22;52812;48.960;9.108;2023-03-26T13:55:34;13.10;99.90
3086;DHT22;52812;48.960;9.108;2023-03-26T14:01:05;13.00;99.90
3086;DHT22;52812;48.960;9.108;2023-03-26T14:03:35;12.90;99.90
3086;DHT22;52812;48.960;9.108;2023-03-26T14:06:11;13.00;99.90
3086;DHT22;52812;48.960;9.108;2023-03-26T14:08:43;13.00;99.90
3086;DHT22;52812;48.960;9.108;2023-03-26T14:11:15;12.80;99.90
3086;DHT22;52812;48.960;9.108;2023-03-26T14:14:07;12.90;99.90
3086;DHT22;52812;48.960;9.108;2023-03-26T14:16:48;12.90;99.90
3086;DHT22;52812;48.960;9.108;2023-03-26T14:28:04;12.90;99.90
3086;DHT22;52812;48.960;9.108;2023-03-26T14:30:49;12.80;99.90
3086;DHT22;52812;48.960;9.108;2023-03-26T14:33:25;12.70;99.90
3086;DHT22;52812;48.960;9.108;2023-03-26T14:42:13;12.50;99.90
3086;DHT22;52812;48.960;9.108;2023-03-26T14:47:44;12.40;99.90
3086;DHT22;52812;48.960;9.108;2023-03-26T14:52:46;12.20;99.90
3086;DHT22;52812;48.960;9.108;2023-03-26T15:04:38;10.00;99.90
3086;DHT22;52812;48.960;9.108;2023-03-26T15:10:33;9.20;99.90
3086;DHT22;52812;48.960;9.108;2023-03-26T15:13:22;9.10;99.90
3086;DHT22;52812;48.960;9.108;2023-03-26T15:39:07;8.20;99.90
3086;DHT22;52812;48.960;9.108;2023-03-26T15:47:30;8.20;99.90
3086;DHT22;52812;48.960;9.108;2023-03-26T15:50:14;8.20;99.90
3086;DHT22;52812;48.960;9.108;2023-03-26T15:55:24;8.30;99.90
3086;DHT22;52812;48.960;9.108;2023-03-26T16:00:27;8.30;99.90
3086;DHT22;52812;48.960;9.108;2023-03-26T16:08:58;8.30;99.90
3086;DHT22;52812;48.960;9.108;2023-03-26T16:11:56;8.30;99.90
3086;DHT22;52812;48.960;9.108;2023-03-26T16:17:02;8.40;99.90
3086;DHT22;52812;48.960;9.108;2023-03-26T16:22:12;8.40;99.90
3086;DHT22;52812;48.960;9.108;2023-03-26T16:24:44;8.50;99.90
3086;DHT22;52812;48.960;9.108;2023-03-26T16:32:31;8.50;99.90
3086;DHT22;52812;48.960;9.108;2023-03-26T16:34:59;8.50;99.90
3086;DHT22;52812;48.960;9.108;2023-03-26T16:43:17;8.50;99.90
3086;DHT22;52812;48.960;9.108;2023-03-26T16:46:13;8.40;99.90
3086;DHT22;52812;48.960;9.108;2023-03-26T16:49:18;8.40;99.90
3086;DHT22;52812;48.960;9.108;2023-03-26T16:52:30;8.30;99.90
3086;DHT22;52812;48.960;9.108;2023-03-26T16:57:39;8.30;99.90
3086;DHT22;52812;48.960;9.108;2023-03-26T17:03:00;8.20;99.90
3086;DHT22;52812;48.960;9.108;2023-03-26T17:05:36;8.20;99.90
3086;DHT22;52812;48.960;9.108;2023-03-26T17:08:17;8.10;99.90
3086;DHT22;52812;48.960;9.108;2023-03-26T17:11:03;8.10;99.90
3086;DHT22;52812;48.960;9.108;2023-03-26T17:14:44;8.10;99.90
3086;DHT22;52812;48.960;9.108;2023-03-26T17:19:34;8.10;99.90
3086;DHT22;52812;48.960;9.108;2023-03-26T17:44:36;8.10;99.90
3086;DHT22;52812;48.960;9.108;2023-03-26T17:47:05;8.10;99.90
3086;DHT22;52812;48.960;9.108;2023-03-26T17:49:32;8.00;99.90
3086;DHT22;52812;48.960;9.108;2023-03-26T17:52:15;8.00;99.90
3086;DHT22;52812;48.960;9.108;2023-03-26T17:54:48;8.00;99.90
3086;DHT22;52812;48.960;9.108;2023-03-26T17:57:38;8.00;99.90
3086;DHT22;52812;48.960;9.108;2023-03-26T18:00:12;8.00;99.90
3086;DHT22;52812;48.960;9.108;2023-03-26T18:02:46;8.00;99.90
3086;DHT22;52812;48.960;9.108;2023-03-26T18:05:15;8.00;99.90
3086;DHT22;52812;48.960;9.108;2023-03-26T18:14:07;7.90;99.90
3086;DHT22;52812;48.960;9.108;2023-03-26T18:16:39;7.90;99.90
3086;DHT22;52812;48.960;9.108;2023-03-26T18:19:24;7.80;99.90
3086;DHT22;52812;48.960;9.108;2023-03-26T18:21:52;7.80;99.90
3086;DHT22;52812;48.960;9.108;2023-03-26T18:27:00;7.70;99.90
3086;DHT22;52812;48.960;9.108;2023-03-26T18:29:29;7.70;99.90
3086;DHT22;52812;48.960;9.108;2023-03-26T18:32:00;7.70;99.90
3086;DHT22;52812;48.960;9.108;2023-03-26T18:34:32;7.70;99.90
3086;DHT22;52812;48.960;9.108;2023-03-26T18:38:08;7.60;99.90
3086;DHT22;52812;48.960;9.108;2023-03-26T18:40:16;7.60;99.90
3086;DHT22;52812;48.960;9.108;2023-03-26T18:42:51;7.70;99.90
3086;DHT22;52812;48.960;9.108;2023-03-26T18:45:32;7.60;99.90
3086;DHT22;52812;48.960;9.108;2023-03-26T18:48:25;7.60;99.90
3086;DHT22;52812;48.960;9.108;2023-03-26T18:51:00;7.60;99.90
3086;DHT22;52812;48.960;9.108;2023-03-26T18:53:28;7.60;99.90
3086;DHT22;52812;48.960;9.108;2023-03-26T18:55:56;7.60;99.90
3086;DHT22;52812;48.960;9.108;2023-03-26T18:58:26;7.60;99.90
3086;DHT22;52812;48.960;9.108;2023-03-26T19:00:58;7.50;99.90
3086;DHT22;52812;48.960;9.108;2023-03-26T19:03:26;7.40;99.90
3086;DHT22;52812;48.960;9.108;2023-03-26T19:05:54;7.50;99.90
3086;DHT22;52812;48.960;9.108;2023-03-26T19:08:22;7.40;99.90
3086;DHT22;52812;48.960;9.108;2023-03-26T19:10:49;7.40;99.90
3086;DHT22;52812;48.960;9.108;2023-03-26T19:13:16;7.30;99.90
3086;DHT22;52812;48.960;9.108;2023-03-26T19:15:45;7.30;99.90
3086;DHT22;52812;48.960;9.108;2023-03-26T19:18:17;7.30;99.90
3086;DHT22;52812;48.960;9.108;2023-03-26T19:20:50;7.30;99.90
3086;DHT22;52812;48.960;9.108;2023-03-26T19:23:19;7.30;99.90
3086;DHT22;52812;48.960;9.108;2023-03-26T19:25:47;7.20;99.90
3086;DHT22;52812;48.960;9.108;2023-03-26T19:30:45;7.10;99.90
3086;DHT22;52812;48.960;9.108;2023-03-26T19:33:16;7.10;99.90
3086;DHT22;52812;48.960;9.108;2023-03-26T19:35:50;7.10;99.90
3086;DHT22;52812;48.960;9.108;2023-03-26T19:38:23;7.00;99.90
3086;DHT22;52812;48.960;9.108;2023-03-26T19:40:54;7.00;99.90
3086;DHT22;52812;48.960;9.108;2023-03-26T19:43:21;6.90;99.90
3086;DHT22;52812;48.960;9.108;2023-03-26T19:45:49;6.80;99.90
3086;DHT22;52812;48.960;9.108;2023-03-26T19:48:18;6.70;99.90
3086;DHT22;52812;48.960;9.108;2023-03-26T19:51:05;6.60;99.90
3086;DHT22;52812;48.960;9.108;2023-03-26T19:53:34;6.50;99.90
3086;DHT22;52812;48.960;9.108;2023-03-26T19:58:35;6.50;99.90
3086;DHT22;52812;48.960;9.108;2023-03-26T20:01:05;6.40;99.90
3086;DHT22;52812;48.960;9.108;2023-03-26T20:03:42;6.40;99.90
3086;DHT22;52812;48.960;9.108;2023-03-26T20:06:13;6.30;99.90
3086;DHT22;52812;48.960;9.108;2023-03-26T20:08:39;6.20;99.90
3086;DHT22;52812;48.960;9.108;2023-03-26T20:27:54;5.90;99.90
3086;DHT22;52812;48.960;9.108;2023-03-26T20:30:30;5.90;99.90
3086;DHT22;52812;48.960;9.108;2023-03-26T20:33:33;5.80;99.90
3086;DHT22;52812;48.960;9.108;2023-03-26T20:35:59;5.80;99.90
3086;DHT22;52812;48.960;9.108;2023-03-26T20:38:24;5.80;99.90
3086;DHT22;52812;48.960;9.108;2023-03-26T20:40:54;5.80;99.90
3086;DHT22;52812;48.960;9.108;2023-03-26T20:43:20;5.90;99.90
3086;DHT22;52812;48.960;9.108;2023-03-26T20:45:49;6.00;99.90
3086;DHT22;52812;48.960;9.108;2023-03-26T20:48:15;6.00;99.90
3086;DHT22;52812;48.960;9.108;2023-03-26T20:50:42;6.10;99.90
3086;DHT22;52812;48.960;9.108;2023-03-26T20:53:13;6.10;99.90
3086;DHT22;52812;48.960;9.108;2023-03-26T20:55:44;6.10;99.90
3086;DHT22;52812;48.960;9.108;2023-03-26T20:58:15;6.10;99.90
3086;DHT22;52812;48.960;9.108;2023-03-26T21:00:47;6.10;99.90
3086;DHT22;52812;48.960;9.108;2023-03-26T21:03:14;6.20;99.90
3086;DHT22;52812;48.960;9.108;2023-03-26T21:05:41;6.20;99.90
3086;DHT22;52812;48.960;9.108;2023-03-26T21:08:16;6.20;99.90
3086;DHT22;52812;48.960;9.108;2023-03-26T21:10:43;6.20;99.90
3086;DHT22;52812;48.960;9.108;2023-03-26T21:13:24;6.20;99.90
3086;DHT22;52812;48.960;9.108;2023-03-26T21:15:54;6.20;99.90
3086;DHT22;52812;48.960;9.108;2023-03-26T21:18:21;6.20;99.90
3086;DHT22;52812;48.960;9.108;2023-03-26T21:20:59;6.30;99.90
3086;DHT22;52812;48.960;9.108;2023-03-26T21:23:37;6.30;99.90
3086;DHT22;52812;48.960;9.108;2023-03-26T21:26:09;6.30;99.90
3086;DHT22;52812;48.960;9.108;2023-03-26T21:28:48;6.30;99.90
3086;DHT22;52812;48.960;9.108;2023-03-26T21:31:20;6.30;99.90
3086;DHT22;52812;48.960;9.108;2023-03-26T21:33:47;6.30;99.90
3086;DHT22;52812;48.960;9.108;2023-03-26T21:36:14;6.30;99.90
3086;DHT22;52812;48.960;9.108;2023-03-26T21:38:41;6.40;99.90
3086;DHT22;52812;48.960;9.108;2023-03-26T21:43:48;6.40;99.90
3086;DHT22;52812;48.960;9.108;2023-03-26T21:46:14;6.40;99.90
3086;DHT22;52812;48.960;9.108;2023-03-26T21:48:40;6.40;99.90
3086;DHT22;52812;48.960;9.108;2023-03-26T21:51:06;6.40;99.90
3086;DHT22;52812;48.960;9.108;2023-03-26T21:53:33;6.40;99.90
3086;DHT22;52812;48.960;9.108;2023-03-26T21:58:49;6.50;99.90
3086;DHT22;52812;48.960;9.108;2023-03-26T22:07:16;6.60;99.90
3086;DHT22;52812;48.960;9.108;2023-03-26T22:09:40;6.60;99.90
3086;DHT22;52812;48.960;9.108;2023-03-26T22:12:07;6.60;99.90
3086;DHT22;52812;48.960;9.108;2023-03-26T22:14:35;6.60;99.90
3086;DHT22;52812;48.960;9.108;2023-03-26T22:17:01;6.70;99.90
3086;DHT22;52812;48.960;9.108;2023-03-26T22:19:27;6.70;99.90